ADDS METAR Data INFO
IDs: Format: Raw Decoded Include TAF

Data at: 1600 UTC 21 Sep 2017

METAR for:LFQA (Reims/Prunay Aprt, --, FR)
Text:LFQA 211530Z AUTO 15004KT CAVOK 19/11 Q1018
Temperature: 19.0°C ( 66°F)
Dewpoint: 11.0°C ( 52°F) [RH = 60%]
Pressure (altimeter):30.06 inches Hg (1018.0 mb)
Winds:from the SSE (150 degrees) at 5 MPH (4 knots; 2.1 m/s)
Visibility:6 or more sm (10+ km)
Ceiling:ceiling and visibility are OK
Clouds:unknown

TAF for:LFQA (Reims/Prunay Aprt, --, FR)
Text:No data found